This is the latest recevied weather packets stored in our database for station/object KC5AV. If no packets are shown the sender has not sent any weather packets the latest 10 day(s).
| Time | Temp. | Humidity | Pressure | Rain* | Wind** | Luminosity | Snow |
|---|---|---|---|---|---|---|---|
| 1787432038 | 40° C | 34% | 1015.8 hPa | 0 mm | - | 239 W/m² | - |
| 1787431737 | 40° C | 36% | 1015.8 hPa | 0 mm | - | 238 W/m² | - |
| 1787431432 | 40° C | 35% | 1015.8 hPa | 0 mm | - | 304 W/m² | - |
| 1787431128 | 40.56° C | 34% | 1015.8 hPa | 0 mm | - | 344 W/m² | - |
| 1787430824 | 40.56° C | 35% | 1016.1 hPa | 0 mm | - | 270 W/m² | - |
| 1787430519 | 41.11° C | 34% | 1016.2 hPa | 0 mm | - | 336 W/m² | - |
| 1787430217 | 41.11° C | 35% | 1016.4 hPa | 0 mm | - | 662 W/m² | - |
| 1787429912 | 40.56° C | 35% | 1016.6 hPa | 0 mm | - | 688 W/m² | - |
| 1787429607 | 41.11° C | 34% | 1016.5 hPa | 0 mm | - | 535 W/m² | - |
| 1787429303 | 41.11° C | 33% | 1016.5 hPa | 0 mm | - | 394 W/m² | - |
| 1787428999 | 41.11° C | 32% | 1016.5 hPa | 0 mm | - | 698 W/m² | - |
| 1787428693 | 41.11° C | 31% | 1016.6 hPa | 0 mm | - | 775 W/m² | - |
| 1787428389 | 40.56° C | 33% | 1016.8 hPa | 0 mm | - | 785 W/m² | - |
| 1787428084 | 40° C | 34% | 1016.8 hPa | 0 mm | - | 586 W/m² | - |
| 1787427779 | 41.11° C | 33% | 1016.9 hPa | 0 mm | - | 423 W/m² | - |
| 1787427475 | 40.56° C | 34% | 1016.9 hPa | 0 mm | - | 804 W/m² | - |
| 1787427171 | 40.56° C | 35% | 1017 hPa | 0 mm | - | 862 W/m² | - |
| 1787426871 | 40.56° C | 34% | 1017 hPa | 0 mm | - | 736 W/m² | - |
| 1787426566 | 40.56° C | 35% | 1017 hPa | 0 mm | - | 614 W/m² | - |
| 1787426263 | 40° C | 36% | 1017 hPa | 0 mm | - | 693 W/m² | - |
| 1787425959 | 40.56° C | 34% | 1017.2 hPa | 0 mm | - | 308 W/m² | - |
| 1787425655 | 40° C | 37% | 1017.3 hPa | 0 mm | - | 645 W/m² | - |
| 1787425351 | 40.56° C | 35% | 1017.3 hPa | 0 mm | - | 312 W/m² | - |
| 1787425051 | 40.56° C | 36% | 1017.4 hPa | 0 mm | - | 835 W/m² | - |
| 1787424750 | 40° C | 37% | 1017.4 hPa | 0 mm | - | 715 W/m² | - |
* Rain latest hour (hover to see other rain measurements)
** Current wind speed in m/s (hover to see current wind gust speed)